Kangerlussuaq

KL  EN  DA
ASIAQ
Weather Now GREENLAND SURVEY
Updated [WGT/WGST] Temperature [°C] Wind [m/s] Air pressure [hPa] Relative humidity [%] Precipitation [mm]
Present Wind chill Speed Max
21.01 20:00-15,9-23,94,1 ⇐4,999368n/a
21.01 19:00-14,7-22,74,4 ⇙5,299362n/a
21.01 18:00-15,1-23,85,0 ⇙5,899363n/a
21.01 17:00-14,7-23,35,0 ⇐5,899362n/a
21.01 16:00-14,6-23,35,2 ⇐5,999360n/a
21.01 15:00-14,9-23,44,8 ⇐6,099359n/a
21.01 14:00-16,0-23,63,7 ⇙5,199361n/a
21.01 13:00-15,6-25,15,8 ⇐6,699358n/a
21.01 12:00-15,9-23,63,8 ⇙4,899361n/a
21.01 11:00-16,4-24,44,0 ⇙4,899363n/a
21.01 10:00-14,3-21,53,7 ⇙4,799356n/a
21.01 09:00-15,3-20,82,3 ⇙3,399260n/a
21.01 08:00-14,1-18,92,0 ⇙3,299265n/a
21.01 07:00-13,6-17,51,6 ⇐2,699167n/a
21.01 06:00-12,80,01,3 ⇓2,199172n/a
21.01 05:00-12,20,01,2 ⇙2,599073n/a
21.01 04:00-12,1-15,61,5 ⇓1,898974n/a
21.01 03:00-11,0-16,73,0 ⇒4,298866n/a
21.01 02:00-10,5-17,74,6 ⇒6,298868n/a
21.01 01:00-10,2-19,37,4 ⇘10,098767n/a
21.01 00:00-10,0-19,68,5 ⇘11,298667n/a
20.01 23:00-9,6-19,18,5 ⇘11,298569n/a
20.01 22:00-9,7-20,310,9 ⇒13,298477n/a
20.01 21:00-9,0-18,99,9 ⇒12,398475n/a
20.01 20:00-8,7-18,29,3 ⇒11,798379n/a
Position: (67.013333333333,-50.72712222)

[Back]